This is the latest recevied weather packets stored in our database for station/object N2UGS-WX. If no packets are shown the sender has not sent any weather packets the latest 10 day(s).
| Time | Temp. | Humidity | Pressure | Rain* | Wind** | Luminosity | Snow |
|---|---|---|---|---|---|---|---|
| 1778216702 | 3.33° C | 96% | 1012.5 hPa | 0 mm | - | - | - |
| 1778216042 | 3.33° C | 95% | 1012.5 hPa | 0 mm | - | - | - |
| 1778215203 | 3.33° C | 95% | 1012.5 hPa | 0 mm | - | - | - |
| 1778214302 | 3.33° C | 95% | 1012.5 hPa | 0 mm | - | - | - |
| 1778213403 | 3.33° C | 94% | 1012.5 hPa | 0 mm | - | - | - |
| 1778212802 | 3.89° C | 94% | 1012.5 hPa | 0 mm | - | - | - |
| 1778212203 | 3.89° C | 94% | 1012.5 hPa | 0 mm | - | - | - |
| 1778211302 | 3.89° C | 93% | 1012.5 hPa | 0 mm | - | - | - |
| 1778210703 | 3.89° C | 93% | 1012.5 hPa | 0 mm | - | - | - |
| 1778209802 | 4.44° C | 92% | 1012.5 hPa | 0 mm | - | - | - |
| 1778208902 | 5° C | 91% | 1012.5 hPa | 0.25 mm | - | - | - |
| 1778207942 | 5.56° C | 91% | 1012.2 hPa | 0.51 mm | - | - | - |
| 1778207042 | 5.56° C | 91% | 1012.2 hPa | 0.51 mm | - | - | - |
| 1778206142 | 5.56° C | 91% | 1012.2 hPa | 1.02 mm | - | - | - |
| 1778205242 | 6.11° C | 91% | 1012.5 hPa | 1.02 mm | - | - | - |
| 1778204342 | 6.11° C | 90% | 1012.5 hPa | 0.76 mm | - | - | - |
| 1778203442 | 6.11° C | 88% | 1012.2 hPa | 0.76 mm | - | - | - |
| 1778202542 | 6.67° C | 85% | 1012.2 hPa | 0 mm | - | - | - |
| 1778201941 | 7.22° C | 80% | 1011.9 hPa | 0 mm | - | - | - |
| 1778201041 | 7.22° C | 78% | 1011.5 hPa | 0 mm | - | - | - |
| 1778200202 | 7.22° C | 78% | 1011.5 hPa | 0 mm | - | - | - |
| 1778199602 | 7.22° C | 78% | 1011.5 hPa | 0 mm | - | - | - |
| 1778198942 | 7.22° C | 75% | 1011.5 hPa | 0 mm | - | - | - |
| 1778198042 | 7.78° C | 72% | 1011.5 hPa | 0 mm | - | - | - |
| 1778197142 | 9.44° C | 63% | 1010.8 hPa | 0 mm | - | - | - |
* Rain latest hour (hover to see other rain measurements)
** Current wind speed in m/s (hover to see current wind gust speed)